Terminal Aerodrome Forecast
Issued by NWS Caribou, ME

Home | Current Version | Previous Version | Text Only | Print | Product List | Glossary On
Versions: 1 2 3 4 5 6 7 8 9 10 11 12 13
000
FTUS41 KCAR 021148
TAFCAR
TAF
KCAR 021148Z 0212/0312 24004KT 2SM -SN OVC025
     FM021500 28006KT 3SM -SN OVC020
     FM021830 30010G22KT P6SM OVC035
     FM022230 30015G30KT 1SM -SHSN BKN035
     FM030100 30017G32KT P6SM SCT100=

USA.gov is the U.S. government's official web portal to all federal, state and local government web resources and services.